EJU54WH LPPT-LPMA
Flight info
| Callsign | EJU54WH |
|---|---|
| Flight time | 1h 27m |
| Altitude | 35000 |
| Route | ULVOT DCT GALPA DCT RAKUN |
| Aircraft | A20N/M-SDE2E3FGHIRWXY/LB1 |
Departure
| Time | 2026-05-04 14:43 |
|---|---|
| Airport | Lisbon Humberto Delgado Airport (LPPT) |
Arrival
| Time | 2026-05-04 16:10 |
|---|---|
| Airport | Cristiano Ronaldo International Airport (LPMA) |
| Time | Latitude | Longitude | Altitude | Speed | Heading |
|---|---|---|---|---|---|
| 2026-05-04 14:14 | 38.77206 | -9.13137 | 337 ft | 0 kts | 78° |
| 2026-05-04 14:15 | 38.77206 | -9.13138 | 337 ft | 0 kts | 78° |
| 2026-05-04 14:28 | 38.77206 | -9.13142 | 337 ft | 2 kts | 78° |
| 2026-05-04 14:28 | 38.77203 | -9.13162 | 333 ft | 2 kts | 78° |
| 2026-05-04 14:29 | 38.77202 | -9.13168 | 331 ft | 0 kts | 78° |
| 2026-05-04 14:29 | 38.77188 | -9.13201 | 336 ft | 0 kts | 35° |
| 2026-05-04 14:30 | 38.77188 | -9.13200 | 334 ft | 0 kts | 36° |
| 2026-05-04 14:30 | 38.77188 | -9.13201 | 334 ft | 2 kts | 35° |
| 2026-05-04 14:30 | 38.77156 | -9.13221 | 336 ft | 1 kts | 16° |
| 2026-05-04 14:31 | 38.77160 | -9.13221 | 336 ft | 0 kts | 11° |
| 2026-05-04 14:32 | 38.77165 | -9.13220 | 336 ft | 2 kts | 7° |
| 2026-05-04 14:32 | 38.77189 | -9.13222 | 332 ft | 5 kts | 354° |
| 2026-05-04 14:33 | 38.77228 | -9.13233 | 338 ft | 7 kts | 346° |
| 2026-05-04 14:33 | 38.77280 | -9.13250 | 338 ft | 9 kts | 346° |
| 2026-05-04 14:33 | 38.77309 | -9.13259 | 334 ft | 1 kts | 345° |
| 2026-05-04 14:33 | 38.77316 | -9.13266 | 336 ft | 2 kts | 324° |
| 2026-05-04 14:34 | 38.77327 | -9.13299 | 339 ft | 7 kts | 277° |
| 2026-05-04 14:34 | 38.77316 | -9.13376 | 348 ft | 9 kts | 257° |
| 2026-05-04 14:34 | 38.77303 | -9.13454 | 349 ft | 8 kts | 258° |
| 2026-05-04 14:34 | 38.77292 | -9.13523 | 355 ft | 7 kts | 258° |
| 2026-05-04 14:35 | 38.77282 | -9.13583 | 349 ft | 7 kts | 258° |
| 2026-05-04 14:35 | 38.77277 | -9.13615 | 354 ft | 2 kts | 259° |
| 2026-05-04 14:35 | 38.77259 | -9.13728 | 359 ft | 15 kts | 263° |
| 2026-05-04 14:35 | 38.77246 | -9.13807 | 359 ft | 1 kts | 256° |
| 2026-05-04 14:36 | 38.77242 | -9.13829 | 356 ft | 10 kts | 253° |
| 2026-05-04 14:36 | 38.77177 | -9.13874 | 354 ft | 13 kts | 204° |
| 2026-05-04 14:36 | 38.77077 | -9.13927 | 354 ft | 18 kts | 204° |
| 2026-05-04 14:36 | 38.76953 | -9.13998 | 352 ft | 22 kts | 205° |
| 2026-05-04 14:37 | 38.76802 | -9.14071 | 346 ft | 24 kts | 201° |
| 2026-05-04 14:37 | 38.76693 | -9.14133 | 350 ft | 8 kts | 204° |
| 2026-05-04 14:37 | 38.76632 | -9.14166 | 340 ft | 12 kts | 202° |
| 2026-05-04 14:37 | 38.76589 | -9.14195 | 338 ft | 8 kts | 226° |
| 2026-05-04 14:38 | 38.76597 | -9.14251 | 338 ft | 0 kts | 294° |
| 2026-05-04 14:41 | 38.76614 | -9.14299 | 335 ft | 12 kts | 294° |
| 2026-05-04 14:41 | 38.76678 | -9.14371 | 335 ft | 12 kts | 18° |
| 2026-05-04 14:41 | 38.76688 | -9.14365 | 335 ft | 0 kts | 21° |
| 2026-05-04 14:42 | 38.76692 | -9.14363 | 336 ft | 4 kts | 21° |
| 2026-05-04 14:42 | 38.76930 | -9.14240 | 350 ft | 71 kts | 21° |
| 2026-05-04 14:42 | 38.77581 | -9.13891 | 364 ft | 127 kts | 23° |
| 2026-05-04 14:43 | 38.78498 | -9.13346 | 470 ft | 159 kts | 21° |
| 2026-05-04 14:43 | 38.79462 | -9.12692 | 1089 ft | 159 kts | 23° |
| 2026-05-04 14:43 | 38.80445 | -9.11966 | 1698 ft | 163 kts | 25° |
| 2026-05-04 14:43 | 38.81409 | -9.11185 | 2306 ft | 165 kts | 26° |
| 2026-05-04 14:44 | 38.82459 | -9.10471 | 2745 ft | 180 kts | 19° |
| 2026-05-04 14:44 | 38.83247 | -9.10030 | 2976 ft | 195 kts | 19° |
| 2026-05-04 14:44 | 38.84647 | -9.09190 | 3409 ft | 224 kts | 23° |
| 2026-05-04 14:44 | 38.85923 | -9.08324 | 3877 ft | 243 kts | 25° |
| 2026-05-04 14:45 | 38.87351 | -9.07011 | 4526 ft | 263 kts | 45° |
| 2026-05-04 14:45 | 38.88213 | -9.04910 | 5435 ft | 273 kts | 74° |
| 2026-05-04 14:45 | 38.88252 | -9.02452 | 6325 ft | 281 kts | 101° |
| 2026-05-04 14:45 | 38.87508 | -9.00148 | 7159 ft | 288 kts | 119° |
| 2026-05-04 14:46 | 38.86262 | -8.98131 | 7968 ft | 293 kts | 142° |
| 2026-05-04 14:46 | 38.84446 | -8.96950 | 8798 ft | 295 kts | 169° |
| 2026-05-04 14:46 | 38.82428 | -8.96879 | 9667 ft | 292 kts | 195° |
| 2026-05-04 14:46 | 38.80593 | -8.97913 | 10457 ft | 290 kts | 220° |
| 2026-05-04 14:47 | 38.79147 | -8.99798 | 10789 ft | 306 kts | 235° |
| 2026-05-04 14:47 | 38.77844 | -9.02080 | 11090 ft | 327 kts | 237° |
| 2026-05-04 14:47 | 38.76485 | -9.04429 | 11804 ft | 332 kts | 235° |
| 2026-05-04 14:47 | 38.75028 | -9.06755 | 12694 ft | 334 kts | 233° |
| 2026-05-04 14:48 | 38.73513 | -9.09034 | 13513 ft | 338 kts | 232° |
| 2026-05-04 14:48 | 38.71976 | -9.11268 | 14285 ft | 340 kts | 232° |
| 2026-05-04 14:48 | 38.70405 | -9.13521 | 15030 ft | 342 kts | 232° |
| 2026-05-04 14:48 | 38.68887 | -9.15689 | 15712 ft | 345 kts | 232° |
| 2026-05-04 14:49 | 38.67308 | -9.17944 | 16433 ft | 347 kts | 232° |
| 2026-05-04 14:49 | 38.65661 | -9.20298 | 17136 ft | 350 kts | 232° |
| 2026-05-04 14:49 | 38.64034 | -9.22622 | 17850 ft | 353 kts | 232° |
| 2026-05-04 14:49 | 38.62387 | -9.24976 | 18526 ft | 355 kts | 232° |
| 2026-05-04 14:50 | 38.60755 | -9.27306 | 19118 ft | 358 kts | 232° |
| 2026-05-04 14:50 | 38.59122 | -9.29636 | 19712 ft | 360 kts | 232° |
| 2026-05-04 14:50 | 38.57447 | -9.32025 | 20291 ft | 363 kts | 232° |
| 2026-05-04 14:50 | 38.55760 | -9.34429 | 20866 ft | 366 kts | 232° |
| 2026-05-04 14:51 | 38.54053 | -9.36859 | 21447 ft | 368 kts | 232° |
| 2026-05-04 14:51 | 38.52331 | -9.39309 | 22020 ft | 371 kts | 232° |
| 2026-05-04 14:51 | 38.50603 | -9.41765 | 22593 ft | 374 kts | 232° |
| 2026-05-04 14:51 | 38.48894 | -9.44191 | 23139 ft | 377 kts | 232° |
| 2026-05-04 14:52 | 38.47140 | -9.46680 | 23683 ft | 379 kts | 232° |
| 2026-05-04 14:52 | 38.45364 | -9.49198 | 24002 ft | 382 kts | 232° |
| 2026-05-04 14:52 | 38.43588 | -9.51714 | 24187 ft | 384 kts | 232° |
| 2026-05-04 14:52 | 38.41825 | -9.54209 | 24632 ft | 385 kts | 232° |
| 2026-05-04 14:53 | 38.40052 | -9.56716 | 25118 ft | 387 kts | 233° |
| 2026-05-04 14:53 | 38.38245 | -9.59269 | 25547 ft | 389 kts | 233° |
| 2026-05-04 14:53 | 38.36426 | -9.61838 | 25987 ft | 392 kts | 233° |
| 2026-05-04 14:53 | 38.34596 | -9.64421 | 26406 ft | 394 kts | 233° |
| 2026-05-04 14:54 | 38.32751 | -9.67022 | 26806 ft | 397 kts | 233° |
| 2026-05-04 14:54 | 38.30902 | -9.69627 | 27203 ft | 395 kts | 233° |
| 2026-05-04 14:54 | 38.29073 | -9.72196 | 27195 ft | 392 kts | 233° |
| 2026-05-04 14:54 | 38.27222 | -9.74802 | 27264 ft | 399 kts | 233° |
| 2026-05-04 14:55 | 38.25352 | -9.77433 | 27628 ft | 402 kts | 233° |
| 2026-05-04 14:55 | 38.23471 | -9.80075 | 28039 ft | 404 kts | 233° |
| 2026-05-04 14:55 | 38.21580 | -9.82728 | 28412 ft | 406 kts | 233° |
| 2026-05-04 14:55 | 38.19703 | -9.85359 | 28756 ft | 408 kts | 233° |
| 2026-05-04 14:56 | 38.17787 | -9.88043 | 29103 ft | 411 kts | 233° |
| 2026-05-04 14:56 | 38.15862 | -9.90737 | 29434 ft | 413 kts | 233° |
| 2026-05-04 14:56 | 38.13925 | -9.93445 | 29770 ft | 415 kts | 233° |
| 2026-05-04 14:56 | 38.11982 | -9.96160 | 30084 ft | 417 kts | 233° |
| 2026-05-04 14:57 | 38.10023 | -9.98895 | 30401 ft | 419 kts | 233° |
| 2026-05-04 14:57 | 38.08057 | -10.01637 | 30672 ft | 421 kts | 233° |
| 2026-05-04 14:57 | 38.06081 | -10.04389 | 30951 ft | 423 kts | 233° |
| 2026-05-04 14:57 | 38.04098 | -10.07151 | 31261 ft | 424 kts | 233° |
| 2026-05-04 14:58 | 38.02106 | -10.09921 | 31626 ft | 424 kts | 233° |
| 2026-05-04 14:58 | 38.00126 | -10.12671 | 32009 ft | 422 kts | 233° |
| 2026-05-04 14:58 | 37.98175 | -10.15380 | 32392 ft | 421 kts | 233° |
| 2026-05-04 14:58 | 37.96837 | -10.17235 | 32648 ft | 420 kts | 233° |
| 2026-05-04 14:59 | 37.94234 | -10.20844 | 33133 ft | 419 kts | 233° |
| 2026-05-04 14:59 | 37.92269 | -10.23566 | 33491 ft | 418 kts | 234° |
| 2026-05-04 14:59 | 37.88357 | -10.28979 | 34184 ft | 415 kts | 234° |
| 2026-05-04 15:00 | 37.86408 | -10.31672 | 34473 ft | 414 kts | 234° |
| 2026-05-04 15:00 | 37.84458 | -10.34365 | 34744 ft | 413 kts | 233° |
| 2026-05-04 15:00 | 37.82523 | -10.37035 | 34997 ft | 413 kts | 233° |
| 2026-05-04 15:01 | 37.78671 | -10.42343 | 35125 ft | 411 kts | 233° |
| 2026-05-04 15:01 | 37.76738 | -10.45001 | 35120 ft | 411 kts | 233° |
| 2026-05-04 15:01 | 37.72872 | -10.50315 | 35126 ft | 411 kts | 233° |
| 2026-05-04 15:02 | 37.68998 | -10.55631 | 35128 ft | 411 kts | 233° |
| 2026-05-04 15:02 | 37.65129 | -10.60932 | 35129 ft | 411 kts | 233° |
| 2026-05-04 15:03 | 37.61277 | -10.66200 | 35126 ft | 411 kts | 233° |
| 2026-05-04 15:03 | 37.57406 | -10.71486 | 35126 ft | 411 kts | 233° |
| 2026-05-04 15:04 | 37.53518 | -10.76787 | 35125 ft | 411 kts | 233° |
| 2026-05-04 15:04 | 37.49637 | -10.82069 | 35124 ft | 411 kts | 233° |
| 2026-05-04 15:05 | 37.45756 | -10.87342 | 35130 ft | 411 kts | 233° |
| 2026-05-04 15:05 | 37.41897 | -10.92576 | 35137 ft | 411 kts | 233° |
| 2026-05-04 15:06 | 37.38011 | -10.97841 | 35126 ft | 411 kts | 233° |
| 2026-05-04 15:07 | 37.32171 | -11.05732 | 35128 ft | 411 kts | 232° |
| 2026-05-04 15:07 | 37.28932 | -11.10102 | 35139 ft | 411 kts | 232° |
| 2026-05-04 15:08 | 37.24400 | -11.16205 | 35136 ft | 411 kts | 232° |
| 2026-05-04 15:08 | 37.20500 | -11.21448 | 35136 ft | 411 kts | 232° |
| 2026-05-04 15:09 | 37.17254 | -11.25805 | 35137 ft | 411 kts | 232° |
| 2026-05-04 15:09 | 37.13354 | -11.31032 | 35135 ft | 411 kts | 232° |
| 2026-05-04 15:10 | 37.07485 | -11.38882 | 35134 ft | 411 kts | 232° |
| 2026-05-04 15:11 | 37.04782 | -11.42492 | 35135 ft | 411 kts | 232° |
| 2026-05-04 15:11 | 37.00868 | -11.47710 | 35136 ft | 411 kts | 232° |
| 2026-05-04 15:12 | 36.96984 | -11.52880 | 35138 ft | 411 kts | 232° |
| 2026-05-04 15:12 | 36.95370 | -11.55026 | 35140 ft | 411 kts | 231° |
| 2026-05-04 15:13 | 36.91452 | -11.60230 | 35134 ft | 411 kts | 231° |
| 2026-05-04 15:13 | 36.87532 | -11.65428 | 35135 ft | 411 kts | 231° |
| 2026-05-04 15:14 | 36.83608 | -11.70624 | 35137 ft | 411 kts | 231° |
| 2026-05-04 15:14 | 36.79684 | -11.75810 | 35137 ft | 411 kts | 231° |
| 2026-05-04 15:15 | 36.75778 | -11.80964 | 35139 ft | 411 kts | 231° |
| 2026-05-04 15:15 | 36.72947 | -11.84694 | 35137 ft | 412 kts | 231° |
| 2026-05-04 15:16 | 36.67038 | -11.92468 | 35145 ft | 412 kts | 231° |
| 2026-05-04 15:17 | 36.61123 | -12.00230 | 35146 ft | 412 kts | 231° |
| 2026-05-04 15:17 | 36.55230 | -12.07945 | 35149 ft | 412 kts | 231° |
| 2026-05-04 15:18 | 36.51284 | -12.13100 | 35147 ft | 412 kts | 231° |
| 2026-05-04 15:19 | 36.45352 | -12.20812 | 35153 ft | 411 kts | 231° |
| 2026-05-04 15:19 | 36.39447 | -12.28512 | 35153 ft | 410 kts | 231° |
| 2026-05-04 15:20 | 36.35534 | -12.33598 | 35162 ft | 409 kts | 231° |
| 2026-05-04 15:20 | 36.31606 | -12.38688 | 35156 ft | 408 kts | 231° |
| 2026-05-04 15:21 | 36.27678 | -12.43772 | 35149 ft | 407 kts | 231° |
| 2026-05-04 15:22 | 36.21805 | -12.51358 | 35149 ft | 406 kts | 232° |
| 2026-05-04 15:22 | 36.15966 | -12.58883 | 35143 ft | 405 kts | 232° |
| 2026-05-04 15:23 | 36.12069 | -12.63896 | 35139 ft | 404 kts | 232° |
| 2026-05-04 15:23 | 36.08172 | -12.68902 | 35135 ft | 404 kts | 231° |
| 2026-05-04 15:24 | 36.00390 | -12.78876 | 35135 ft | 403 kts | 231° |
| 2026-05-04 15:25 | 35.96491 | -12.83861 | 35135 ft | 403 kts | 231° |
| 2026-05-04 15:26 | 35.90675 | -12.91284 | 35132 ft | 403 kts | 231° |
| 2026-05-04 15:26 | 35.84815 | -12.98747 | 35143 ft | 404 kts | 231° |
| 2026-05-04 15:27 | 35.78941 | -13.06209 | 35149 ft | 405 kts | 231° |
| 2026-05-04 15:28 | 35.73049 | -13.13678 | 35153 ft | 406 kts | 231° |
| 2026-05-04 15:29 | 35.67169 | -13.21115 | 35155 ft | 406 kts | 231° |
| 2026-05-04 15:30 | 35.53335 | -13.38545 | 35158 ft | 407 kts | 231° |
| 2026-05-04 15:31 | 35.47393 | -13.46005 | 35159 ft | 408 kts | 230° |
| 2026-05-04 15:32 | 35.37494 | -13.58394 | 35166 ft | 408 kts | 230° |
| 2026-05-04 15:34 | 35.27610 | -13.70720 | 35157 ft | 407 kts | 230° |
| 2026-05-04 15:34 | 35.21649 | -13.78130 | 35159 ft | 406 kts | 230° |
| 2026-05-04 15:35 | 35.15703 | -13.85506 | 35152 ft | 406 kts | 230° |
| 2026-05-04 15:36 | 35.09767 | -13.92852 | 35158 ft | 405 kts | 230° |
| 2026-05-04 15:36 | 35.05808 | -13.97743 | 35148 ft | 405 kts | 230° |
| 2026-05-04 15:37 | 35.01881 | -14.02588 | 35145 ft | 404 kts | 230° |
| 2026-05-04 15:37 | 34.97927 | -14.07458 | 35158 ft | 404 kts | 230° |
| 2026-05-04 15:38 | 34.93942 | -14.12348 | 35151 ft | 411 kts | 229° |
| 2026-05-04 15:38 | 34.89921 | -14.17279 | 35149 ft | 409 kts | 229° |
| 2026-05-04 15:39 | 34.85906 | -14.22198 | 35152 ft | 410 kts | 229° |
| 2026-05-04 15:40 | 34.79838 | -14.29624 | 35152 ft | 416 kts | 229° |
| 2026-05-04 15:40 | 34.75753 | -14.34608 | 35153 ft | 416 kts | 229° |
| 2026-05-04 15:41 | 34.71648 | -14.39611 | 35151 ft | 417 kts | 229° |
| 2026-05-04 15:41 | 34.67562 | -14.44581 | 35153 ft | 416 kts | 229° |
| 2026-05-04 15:42 | 34.63464 | -14.49562 | 35150 ft | 417 kts | 229° |
| 2026-05-04 15:42 | 34.59395 | -14.54499 | 35150 ft | 417 kts | 228° |
| 2026-05-04 15:43 | 34.55288 | -14.59474 | 35150 ft | 417 kts | 228° |
| 2026-05-04 15:43 | 34.51180 | -14.64443 | 35149 ft | 417 kts | 228° |
| 2026-05-04 15:44 | 34.47064 | -14.69416 | 35143 ft | 421 kts | 228° |
| 2026-05-04 15:44 | 34.42869 | -14.74478 | 35145 ft | 429 kts | 228° |
| 2026-05-04 15:45 | 34.38726 | -14.79461 | 35140 ft | 416 kts | 228° |
| 2026-05-04 15:45 | 34.34617 | -14.84403 | 35141 ft | 418 kts | 228° |
| 2026-05-04 15:46 | 34.30489 | -14.89361 | 35146 ft | 418 kts | 227° |
| 2026-05-04 15:46 | 34.26363 | -14.94308 | 35145 ft | 418 kts | 227° |
| 2026-05-04 15:47 | 34.22228 | -14.99259 | 35141 ft | 419 kts | 227° |
| 2026-05-04 15:47 | 34.18091 | -15.04204 | 35141 ft | 419 kts | 227° |
| 2026-05-04 15:48 | 34.13969 | -15.09125 | 35137 ft | 420 kts | 227° |
| 2026-05-04 15:48 | 34.07726 | -15.16564 | 35133 ft | 421 kts | 227° |
| 2026-05-04 15:49 | 34.03545 | -15.21536 | 35137 ft | 422 kts | 227° |
| 2026-05-04 15:49 | 33.99385 | -15.26475 | 35135 ft | 417 kts | 227° |
| 2026-05-04 15:50 | 33.95244 | -15.31388 | 35132 ft | 423 kts | 227° |
| 2026-05-04 15:50 | 33.91018 | -15.36395 | 35128 ft | 433 kts | 227° |
| 2026-05-04 15:51 | 33.86690 | -15.41512 | 35128 ft | 435 kts | 227° |
| 2026-05-04 15:51 | 33.84549 | -15.44038 | 34786 ft | 429 kts | 227° |
| 2026-05-04 15:51 | 33.82419 | -15.46549 | 34046 ft | 431 kts | 227° |
| 2026-05-04 15:52 | 33.80283 | -15.49069 | 33407 ft | 427 kts | 227° |
| 2026-05-04 15:52 | 33.78165 | -15.51566 | 33031 ft | 426 kts | 227° |
| 2026-05-04 15:52 | 33.76022 | -15.54093 | 32724 ft | 439 kts | 227° |
| 2026-05-04 15:52 | 33.73811 | -15.56699 | 32416 ft | 447 kts | 227° |
| 2026-05-04 15:53 | 33.71625 | -15.59268 | 32151 ft | 443 kts | 227° |
| 2026-05-04 15:53 | 33.69430 | -15.61845 | 31511 ft | 442 kts | 226° |
| 2026-05-04 15:53 | 33.67235 | -15.64421 | 30660 ft | 443 kts | 226° |
| 2026-05-04 15:53 | 33.65021 | -15.67019 | 29617 ft | 446 kts | 226° |
| 2026-05-04 15:54 | 33.62791 | -15.69633 | 28468 ft | 449 kts | 226° |
| 2026-05-04 15:54 | 33.60555 | -15.72253 | 27321 ft | 453 kts | 226° |
| 2026-05-04 15:54 | 33.58285 | -15.74910 | 26137 ft | 457 kts | 226° |
| 2026-05-04 15:54 | 33.56004 | -15.77579 | 24968 ft | 460 kts | 226° |
| 2026-05-04 15:55 | 33.53705 | -15.80267 | 23839 ft | 463 kts | 226° |
| 2026-05-04 15:55 | 33.51401 | -15.82956 | 22909 ft | 460 kts | 226° |
| 2026-05-04 15:55 | 33.49133 | -15.85600 | 22171 ft | 451 kts | 226° |
| 2026-05-04 15:55 | 33.46909 | -15.88192 | 21424 ft | 443 kts | 226° |
| 2026-05-04 15:56 | 33.44744 | -15.90713 | 20671 ft | 437 kts | 226° |
| 2026-05-04 15:56 | 33.42569 | -15.93246 | 19930 ft | 432 kts | 226° |
| 2026-05-04 15:56 | 33.40426 | -15.95739 | 19171 ft | 429 kts | 226° |
| 2026-05-04 15:56 | 33.38282 | -15.98232 | 18230 ft | 433 kts | 226° |
| 2026-05-04 15:57 | 33.36113 | -16.00755 | 17280 ft | 434 kts | 225° |
| 2026-05-04 15:57 | 33.33960 | -16.03253 | 16437 ft | 430 kts | 225° |
| 2026-05-04 15:57 | 33.31837 | -16.05716 | 15571 ft | 420 kts | 225° |
| 2026-05-04 15:57 | 33.29749 | -16.08136 | 14382 ft | 416 kts | 225° |
| 2026-05-04 15:58 | 33.27677 | -16.10537 | 13202 ft | 411 kts | 225° |
| 2026-05-04 15:58 | 33.25644 | -16.12891 | 12102 ft | 403 kts | 225° |
| 2026-05-04 15:58 | 33.23660 | -16.15186 | 11139 ft | 400 kts | 225° |
| 2026-05-04 15:58 | 33.21702 | -16.17448 | 10828 ft | 385 kts | 225° |
| 2026-05-04 15:59 | 33.19821 | -16.19619 | 10623 ft | 368 kts | 224° |
| 2026-05-04 15:59 | 33.18025 | -16.21692 | 10455 ft | 351 kts | 225° |
| 2026-05-04 15:59 | 33.16306 | -16.23674 | 10302 ft | 336 kts | 225° |
| 2026-05-04 15:59 | 33.14661 | -16.25571 | 10173 ft | 321 kts | 225° |
| 2026-05-04 16:00 | 33.13092 | -16.27378 | 10054 ft | 308 kts | 225° |
| 2026-05-04 16:00 | 33.11581 | -16.29119 | 9957 ft | 296 kts | 225° |
| 2026-05-04 16:00 | 33.10142 | -16.30776 | 9767 ft | 288 kts | 225° |
| 2026-05-04 16:00 | 33.08702 | -16.32433 | 9346 ft | 287 kts | 225° |
| 2026-05-04 16:01 | 33.07273 | -16.34078 | 8965 ft | 286 kts | 224° |
| 2026-05-04 16:01 | 33.05845 | -16.35722 | 8637 ft | 284 kts | 224° |
| 2026-05-04 16:01 | 33.04427 | -16.37351 | 8311 ft | 283 kts | 224° |
| 2026-05-04 16:01 | 33.02989 | -16.39001 | 7754 ft | 290 kts | 224° |
| 2026-05-04 16:02 | 33.01520 | -16.40687 | 7188 ft | 295 kts | 224° |
| 2026-05-04 16:02 | 33.00034 | -16.42395 | 6864 ft | 298 kts | 224° |
| 2026-05-04 16:02 | 32.97175 | -16.45674 | 6381 ft | 275 kts | 224° |
| 2026-05-04 16:03 | 32.95825 | -16.47221 | 5825 ft | 272 kts | 224° |
| 2026-05-04 16:03 | 32.94463 | -16.48782 | 5252 ft | 271 kts | 224° |
| 2026-05-04 16:03 | 32.93128 | -16.50312 | 4882 ft | 262 kts | 223° |
| 2026-05-04 16:03 | 32.91836 | -16.51791 | 4519 ft | 253 kts | 223° |
| 2026-05-04 16:04 | 32.90591 | -16.53216 | 4176 ft | 245 kts | 223° |
| 2026-05-04 16:04 | 32.88140 | -16.56017 | 3493 ft | 246 kts | 223° |
| 2026-05-04 16:04 | 32.86917 | -16.57412 | 3303 ft | 240 kts | 223° |
| 2026-05-04 16:05 | 32.85740 | -16.58756 | 3196 ft | 228 kts | 223° |
| 2026-05-04 16:05 | 32.84628 | -16.60036 | 3084 ft | 218 kts | 224° |
| 2026-05-04 16:05 | 32.82615 | -16.62407 | 2994 ft | 191 kts | 224° |
| 2026-05-04 16:06 | 32.81681 | -16.63508 | 2683 ft | 189 kts | 224° |
| 2026-05-04 16:06 | 32.79336 | -16.66269 | 1992 ft | 153 kts | 224° |
| 2026-05-04 16:07 | 32.78368 | -16.67406 | 1856 ft | 149 kts | 223° |
| 2026-05-04 16:07 | 32.76205 | -16.69977 | 1672 ft | 147 kts | 224° |
| 2026-05-04 16:08 | 32.75470 | -16.70839 | 1443 ft | 149 kts | 223° |
| 2026-05-04 16:08 | 32.73278 | -16.73392 | 814 ft | 145 kts | 221° |
| 2026-05-04 16:09 | 32.71819 | -16.75079 | 524 ft | 144 kts | 220° |
| 2026-05-04 16:09 | 32.70409 | -16.76718 | 203 ft | 141 kts | 221° |
| 2026-05-04 16:10 | 32.69485 | -16.77798 | 172 ft | 39 kts | 227° |
| 2026-05-04 16:11 | 32.69288 | -16.77921 | 169 ft | 11 kts | 101° |
| 2026-05-04 16:11 | 32.69303 | -16.77839 | 169 ft | 10 kts | 54° |
| 2026-05-04 16:12 | 32.69329 | -16.77807 | 169 ft | 6 kts | 46° |
| 2026-05-04 16:12 | 32.69430 | -16.77671 | 169 ft | 1 kts | 86° |
| 2026-05-04 16:13 | 32.69405 | -16.77649 | 169 ft | 4 kts | 147° |
| 2026-05-04 16:13 | 32.69391 | -16.77633 | 169 ft | 3 kts | 136° |
| 2026-05-04 16:14 | 32.69383 | -16.77625 | 169 ft | 0 kts | 138° |